createdAt,value
2019-03-30T00:00:59.240Z,10.90
2019-03-30T00:03:31.750Z,11.60
2019-03-30T00:06:03.602Z,11.10
2019-03-30T00:08:35.362Z,13.60
2019-03-30T00:11:06.824Z,14.17
2019-03-30T00:13:38.679Z,12.07
2019-03-30T00:16:10.561Z,11.70
2019-03-30T00:18:51.536Z,13.83
2019-03-30T00:21:23.468Z,10.23
2019-03-30T00:23:57.473Z,13.03
2019-03-30T00:26:38.673Z,10.50
2019-03-30T00:29:20.694Z,13.27
2019-03-30T00:31:52.613Z,10.93
2019-03-30T00:34:24.607Z,11.77
2019-03-30T00:36:58.200Z,15.77
2019-03-30T00:39:31.064Z,13.73
2019-03-30T00:42:02.952Z,13.20
2019-03-30T00:44:34.164Z,14.40
2019-03-30T00:47:06.875Z,13.67
2019-03-30T00:49:48.896Z,12.83
2019-03-30T00:52:13.248Z,10.13
2019-03-30T00:54:47.232Z,15.60
2019-03-30T00:57:18.392Z,12.63
2019-03-30T00:59:51.085Z,13.00
2019-03-30T01:02:24.051Z,20.60
2019-03-30T01:04:57.349Z,12.93
2019-03-30T01:07:45.436Z,15.23
2019-03-30T01:10:17.344Z,12.17
2019-03-30T01:12:48.815Z,12.83
2019-03-30T01:15:20.763Z,12.73
2019-03-30T01:18:00.115Z,14.70
2019-03-30T01:20:39.613Z,13.87
2019-03-30T01:23:12.674Z,12.63
2019-03-30T01:25:47.579Z,14.13
2019-03-30T01:28:20.865Z,13.60
2019-03-30T01:30:52.058Z,13.27
2019-03-30T01:33:24.623Z,14.20
2019-03-30T01:35:58.168Z,13.10
2019-03-30T02:03:05.669Z,19.27
2019-03-30T02:05:37.488Z,17.53
2019-03-30T02:08:08.896Z,17.10
2019-03-30T02:10:45.758Z,18.13
2019-03-30T02:13:17.266Z,14.90
2019-03-30T02:15:48.959Z,12.73
2019-03-30T02:18:20.614Z,14.43
2019-03-30T02:20:52.689Z,13.53
2019-03-30T02:23:24.502Z,12.80
2019-03-30T02:25:56.511Z,14.20
2019-03-30T02:28:28.896Z,16.63
2019-03-30T02:31:00.447Z,13.10
2019-03-30T02:33:32.105Z,15.70
2019-03-30T02:36:05.436Z,14.20
2019-03-30T02:38:38.811Z,14.07
2019-03-30T02:41:10.575Z,13.03
2019-03-30T02:43:42.763Z,14.90
2019-03-30T02:46:14.909Z,16.57
2019-03-30T02:48:47.124Z,14.83
2019-03-30T02:51:18.604Z,13.80
2019-03-30T02:53:50.645Z,17.27
2019-03-30T02:56:22.070Z,15.37
2019-03-30T02:58:53.516Z,13.33
2019-03-30T03:01:24.992Z,15.63
2019-03-30T03:04:01.030Z,14.70
2019-03-30T03:06:33.193Z,15.50
2019-03-30T03:09:08.130Z,18.90
2019-03-30T03:11:39.865Z,18.13
2019-03-30T03:14:11.357Z,15.07
2019-03-30T03:16:42.777Z,18.67
2019-03-30T03:19:14.005Z,16.07
2019-03-30T03:21:46.189Z,16.03
2019-03-30T03:24:18.735Z,19.90
2019-03-30T03:26:50.851Z,18.70
2019-03-30T03:29:22.604Z,17.10
2019-03-30T03:31:54.069Z,19.17
2019-03-30T03:34:25.991Z,20.33
2019-03-30T03:36:58.095Z,16.73
2019-03-30T03:39:29.537Z,15.93
2019-03-30T03:42:01.346Z,15.77
2019-03-30T03:44:33.156Z,16.27
2019-03-30T03:47:05.045Z,21.37
2019-03-30T03:49:36.771Z,15.00
2019-03-30T03:52:12.561Z,18.83
2019-03-30T03:54:46.805Z,19.03
2019-03-30T03:57:20.573Z,17.17
2019-03-30T03:59:55.167Z,21.33
2019-03-30T04:02:33.177Z,19.10
2019-03-30T04:05:07.194Z,16.90
2019-03-30T04:07:43.083Z,18.87
2019-03-30T04:10:14.622Z,18.97
2019-03-30T04:12:48.934Z,20.10
2019-03-30T04:15:27.767Z,19.10
2019-03-30T04:17:59.792Z,22.40
2019-03-30T04:20:31.860Z,18.87
2019-03-30T04:23:03.021Z,19.23
2019-03-30T04:25:34.458Z,24.07
2019-03-30T04:28:05.852Z,21.93
2019-03-30T04:30:37.275Z,23.10
2019-03-30T04:33:08.713Z,19.63
2019-03-30T04:35:40.270Z,20.97
2019-03-30T04:38:19.003Z,20.53
2019-03-30T04:40:51.171Z,19.93
2019-03-30T04:43:23.027Z,21.13
2019-03-30T04:45:54.461Z,26.03
2019-03-30T04:48:29.318Z,22.50
2019-03-30T04:51:00.417Z,22.53
2019-03-30T04:53:32.824Z,19.63
2019-03-30T04:56:04.984Z,19.33
2019-03-30T04:58:36.939Z,18.30
2019-03-30T05:01:08.361Z,18.30
2019-03-30T05:03:40.154Z,22.07
2019-03-30T05:06:12.420Z,21.27
2019-03-30T05:08:43.858Z,19.50
2019-03-30T05:11:16.053Z,22.40
2019-03-30T05:13:47.855Z,20.13
2019-03-30T05:16:29.782Z,20.63
2019-03-30T05:19:01.364Z,21.57
2019-03-30T05:21:33.681Z,20.87
2019-03-30T05:24:05.460Z,20.07
2019-03-30T05:26:36.726Z,23.30
2019-03-30T05:29:09.768Z,20.70
2019-03-30T05:31:41.900Z,22.33
2019-03-30T05:34:15.464Z,19.97
2019-03-30T05:36:47.323Z,22.67
2019-03-30T05:39:18.795Z,18.50
2019-03-30T05:41:50.842Z,21.47
2019-03-30T05:44:27.725Z,23.17
2019-03-30T05:47:00.905Z,21.80
2019-03-30T05:49:32.949Z,21.27
2019-03-30T05:52:04.834Z,19.70
2019-03-30T05:54:36.287Z,20.63
2019-03-30T05:57:07.733Z,21.10
2019-03-30T05:59:39.209Z,20.00
2019-03-30T06:02:10.963Z,21.03
2019-03-30T06:04:42.082Z,22.70
2019-03-30T06:07:14.360Z,23.17
2019-03-30T06:09:46.095Z,21.53
2019-03-30T06:12:18.274Z,26.13
2019-03-30T06:14:50.058Z,21.97
2019-03-30T06:17:22.200Z,21.13
2019-03-30T06:19:55.259Z,19.37
2019-03-30T06:22:39.709Z,22.47
2019-03-30T06:25:01.021Z,20.07
2019-03-30T06:27:42.314Z,19.83
2019-03-30T06:30:29.228Z,19.67
2019-03-30T06:33:02.190Z,21.53
2019-03-30T06:35:33.384Z,20.40
2019-03-30T06:38:05.262Z,20.63
2019-03-30T06:40:37.603Z,21.07
2019-03-30T06:43:09.112Z,23.10
2019-03-30T06:45:41.241Z,20.23
2019-03-30T06:48:22.619Z,22.63
2019-03-30T06:50:56.354Z,22.83
2019-03-30T06:53:38.728Z,21.73
2019-03-30T06:56:10.590Z,19.17
2019-03-30T06:58:42.451Z,17.73
2019-03-30T07:01:16.475Z,18.03
2019-03-30T07:03:53.626Z,17.67
2019-03-30T07:06:27.781Z,18.60
2019-03-30T07:09:01.176Z,17.70
2019-03-30T07:11:51.374Z,16.47
2019-03-30T07:14:25.468Z,17.93
2019-03-30T07:17:06.965Z,18.57
2019-03-30T07:19:42.903Z,18.30
2019-03-30T07:22:15.197Z,18.00
2019-03-30T07:24:47.253Z,19.87
2019-03-30T07:27:25.964Z,16.83
2019-03-30T07:30:04.690Z,18.43
2019-03-30T07:32:36.964Z,19.03
2019-03-30T07:35:17.936Z,19.40
2019-03-30T07:37:50.766Z,21.37
2019-03-30T07:40:22.154Z,19.57
2019-03-30T07:42:54.338Z,21.30
2019-03-30T07:45:26.190Z,19.60
2019-03-30T07:48:00.505Z,17.57
2019-03-30T07:50:32.390Z,22.83
2019-03-30T07:53:03.830Z,18.80
2019-03-30T07:55:35.811Z,21.30
2019-03-30T07:58:17.290Z,18.57
2019-03-30T08:00:48.817Z,17.73
2019-03-30T08:03:20.798Z,20.73
2019-03-30T08:05:54.338Z,19.43
2019-03-30T08:08:27.105Z,19.63
2019-03-30T08:10:58.928Z,19.20
2019-03-30T08:13:31.298Z,19.33
2019-03-30T08:16:03.258Z,20.53
2019-03-30T08:18:34.482Z,20.40
2019-03-30T08:21:06.974Z,19.50
2019-03-30T08:23:40.769Z,18.23
2019-03-30T08:26:12.156Z,17.10
2019-03-30T08:28:44.507Z,17.87
2019-03-30T08:31:17.282Z,17.60
2019-03-30T08:33:49.147Z,16.67
2019-03-30T08:36:20.617Z,20.13
2019-03-30T08:38:52.445Z,16.73
2019-03-30T08:41:24.324Z,19.70
2019-03-30T08:43:56.793Z,20.43
2019-03-30T08:46:28.323Z,25.60
2019-03-30T08:49:00.322Z,22.53
2019-03-30T08:51:33.624Z,20.00
2019-03-30T08:54:11.712Z,20.57
2019-03-30T08:56:44.006Z,15.53
2019-03-30T08:59:16.344Z,20.00
2019-03-30T09:01:48.582Z,17.20
2019-03-30T09:04:19.754Z,17.83
2019-03-30T09:06:51.618Z,19.33
2019-03-30T09:09:23.368Z,17.00
2019-03-30T09:11:54.841Z,19.10
2019-03-30T09:14:26.789Z,19.63
2019-03-30T09:16:58.560Z,16.30
2019-03-30T09:19:29.992Z,15.87
2019-03-30T09:22:01.849Z,17.83
2019-03-30T09:24:35.714Z,19.60
2019-03-30T09:27:07.524Z,18.63
2019-03-30T09:29:41.802Z,15.73
2019-03-30T09:32:14.990Z,16.17
2019-03-30T09:34:46.681Z,17.63
2019-03-30T09:37:20.234Z,18.67
2019-03-30T09:39:52.157Z,17.00
2019-03-30T09:42:42.909Z,16.20
2019-03-30T09:45:14.412Z,19.90
2019-03-30T09:47:47.482Z,17.20
2019-03-30T09:50:19.169Z,18.60
2019-03-30T09:52:51.000Z,17.20
2019-03-30T09:55:22.547Z,17.03
2019-03-30T09:57:54.889Z,15.57
2019-03-30T10:00:26.391Z,18.33
2019-03-30T10:02:57.859Z,15.28
2019-03-30T10:05:29.358Z,15.48
2019-03-30T10:08:00.831Z,17.32
2019-03-30T10:10:32.629Z,17.30
2019-03-30T10:13:04.749Z,15.95
2019-03-30T10:15:35.887Z,15.40
2019-03-30T10:18:07.325Z,17.80
2019-03-30T10:20:39.546Z,16.02
2019-03-30T10:23:11.599Z,16.55
2019-03-30T10:25:43.030Z,17.27
2019-03-30T10:28:14.797Z,17.00
2019-03-30T10:30:46.661Z,17.48
2019-03-30T10:33:18.106Z,16.80
2019-03-30T10:35:49.565Z,16.73
2019-03-30T10:38:21.088Z,18.23
2019-03-30T10:40:52.884Z,17.60
2019-03-30T10:43:24.673Z,18.42
2019-03-30T10:46:23.625Z,18.75
2019-03-30T10:48:54.742Z,16.73
2019-03-30T10:51:26.543Z,16.02
2019-03-30T10:54:16.934Z,16.80
2019-03-30T10:56:52.241Z,16.27
2019-03-30T10:59:23.707Z,17.00
2019-03-30T11:01:55.438Z,17.42
2019-03-30T11:04:27.601Z,17.12
2019-03-30T11:07:00.105Z,17.95
2019-03-30T11:09:33.349Z,17.12
2019-03-30T11:12:06.380Z,18.87
2019-03-30T11:14:38.568Z,15.75
2019-03-30T11:17:10.715Z,15.23
2019-03-30T11:19:42.686Z,16.15
2019-03-30T11:22:14.687Z,16.27
2019-03-30T11:24:46.196Z,14.95
2019-03-30T11:27:18.641Z,16.65
2019-03-30T11:29:50.448Z,15.38
2019-03-30T11:32:22.263Z,14.43
2019-03-30T11:34:54.061Z,18.00
2019-03-30T11:37:26.086Z,17.00
2019-03-30T11:39:57.607Z,17.25
2019-03-30T11:42:45.832Z,15.38
2019-03-30T11:45:18.995Z,17.05
2019-03-30T11:47:50.824Z,16.93
2019-03-30T11:50:24.126Z,16.60
2019-03-30T11:53:07.485Z,16.25
2019-03-30T11:55:40.986Z,15.80
2019-03-30T11:58:12.503Z,14.73
2019-03-30T12:00:43.969Z,16.67
2019-03-30T12:03:15.792Z,16.12
2019-03-30T12:05:48.411Z,16.25
2019-03-30T12:08:20.076Z,15.65
2019-03-30T12:10:51.528Z,14.85
2019-03-30T12:13:23.979Z,16.77
2019-03-30T12:15:55.772Z,16.75
2019-03-30T12:18:28.484Z,16.30
2019-03-30T12:21:02.487Z,16.57
2019-03-30T12:23:34.451Z,14.13
2019-03-30T12:26:06.177Z,13.50
2019-03-30T12:28:39.065Z,17.00
2019-03-30T12:31:12.231Z,13.62
2019-03-30T12:33:45.108Z,15.03
2019-03-30T12:36:17.155Z,15.98
2019-03-30T12:38:50.269Z,20.57
2019-03-30T12:41:22.204Z,13.85
2019-03-30T12:43:54.639Z,16.37
2019-03-30T12:46:26.483Z,14.87
2019-03-30T12:48:58.156Z,17.75
2019-03-30T12:51:32.350Z,15.15
2019-03-30T12:54:03.554Z,14.80
2019-03-30T12:56:35.518Z,13.95
2019-03-30T12:59:07.499Z,16.30
2019-03-30T13:01:39.433Z,16.25
2019-03-30T13:04:11.291Z,17.57
2019-03-30T13:06:43.610Z,13.75
2019-03-30T13:09:15.543Z,21.05
2019-03-30T13:11:48.961Z,14.65
2019-03-30T13:14:21.269Z,16.02
2019-03-30T13:16:53.008Z,15.20
2019-03-30T13:19:25.490Z,16.65
2019-03-30T13:21:57.034Z,16.93
2019-03-30T13:24:28.894Z,15.48
2019-03-30T13:27:01.417Z,15.70
2019-03-30T13:29:33.737Z,16.17
2019-03-30T13:32:06.523Z,16.70
2019-03-30T13:34:38.789Z,14.60
2019-03-30T13:37:20.613Z,14.30
2019-03-30T13:39:52.564Z,14.78
2019-03-30T13:42:31.281Z,17.40
2019-03-30T13:45:03.895Z,14.60
2019-03-30T13:47:35.805Z,14.28
2019-03-30T13:50:08.064Z,16.27
2019-03-30T13:52:43.155Z,16.35
2019-03-30T13:55:15.766Z,14.93
2019-03-30T13:57:47.247Z,16.12
2019-03-30T14:00:19.749Z,13.25
2019-03-30T14:02:52.067Z,14.45
2019-03-30T14:05:26.008Z,11.30
2019-03-30T14:07:57.879Z,14.55
2019-03-30T14:10:29.751Z,11.22
2019-03-30T14:13:01.845Z,10.78
2019-03-30T14:15:33.737Z,10.35
2019-03-30T14:18:06.852Z,11.05
2019-03-30T14:20:38.803Z,11.15
2019-03-30T14:23:10.860Z,11.65
2019-03-30T14:25:50.681Z,10.32
2019-03-30T14:28:23.011Z,10.45
2019-03-30T14:30:55.219Z,11.73
2019-03-30T14:33:27.917Z,12.20
2019-03-30T14:36:00.532Z,14.93
2019-03-30T14:38:32.960Z,10.45
2019-03-30T14:41:04.618Z,11.73
2019-03-30T14:43:36.279Z,11.95
2019-03-30T14:46:08.999Z,9.93
2019-03-30T14:48:53.597Z,8.75
2019-03-30T14:51:26.170Z,11.88
2019-03-30T14:53:59.352Z,14.45
2019-03-30T14:56:45.003Z,18.15
2019-03-30T14:59:10.297Z,17.27
2019-03-30T15:01:39.444Z,14.90
2019-03-30T15:04:11.254Z,16.70
2019-03-30T15:06:42.884Z,17.90
2019-03-30T15:09:15.077Z,18.60
2019-03-30T15:11:47.317Z,16.30
2019-03-30T15:14:19.539Z,14.40
2019-03-30T15:16:50.965Z,15.35
2019-03-30T15:19:23.342Z,14.93
2019-03-30T15:21:56.298Z,15.15
2019-03-30T15:24:27.884Z,14.65
2019-03-30T15:27:00.636Z,12.58
2019-03-30T15:29:32.263Z,10.32
2019-03-30T15:32:04.173Z,10.88
2019-03-30T15:34:35.630Z,8.65
2019-03-30T15:37:07.465Z,9.03
2019-03-30T15:39:38.914Z,9.80
2019-03-30T15:42:11.815Z,11.18
2019-03-30T15:44:44.106Z,10.88
2019-03-30T15:47:16.321Z,10.65
2019-03-30T15:49:48.013Z,13.50
2019-03-30T15:52:27.563Z,10.93
2019-03-30T15:54:59.085Z,6.67
2019-03-30T15:57:30.325Z,8.23
2019-03-30T16:00:02.202Z,6.58
2019-03-30T16:02:36.072Z,7.53
2019-03-30T16:05:08.191Z,8.25
2019-03-30T16:07:39.754Z,7.78
2019-03-30T16:10:12.612Z,7.65
2019-03-30T16:12:44.455Z,7.05
2019-03-30T16:15:16.927Z,7.20
2019-03-30T16:17:48.915Z,10.20
2019-03-30T16:20:21.282Z,7.25
2019-03-30T16:22:53.759Z,5.83
2019-03-30T16:25:25.358Z,7.72
2019-03-30T16:27:57.043Z,6.97
2019-03-30T16:30:29.641Z,7.42
2019-03-30T16:33:01.194Z,7.42
2019-03-30T16:35:32.971Z,8.45
2019-03-30T16:38:17.637Z,10.53
2019-03-30T16:40:49.273Z,8.85
2019-03-30T16:43:21.854Z,8.43
2019-03-30T16:45:54.524Z,6.80
2019-03-30T16:48:26.279Z,6.65
2019-03-30T16:50:58.248Z,5.97
2019-03-30T16:53:30.099Z,6.40
2019-03-30T16:56:02.493Z,7.62
2019-03-30T16:58:34.238Z,7.42
2019-03-30T17:01:05.778Z,7.42
2019-03-30T17:03:37.217Z,7.83
2019-03-30T17:06:09.916Z,9.03
2019-03-30T17:08:42.253Z,7.57
2019-03-30T17:11:14.451Z,8.87
2019-03-30T17:13:46.149Z,8.97
2019-03-30T17:16:18.310Z,8.53
2019-03-30T17:18:50.070Z,8.60
2019-03-30T17:21:21.602Z,8.70
2019-03-30T17:23:53.544Z,9.80
2019-03-30T17:26:25.048Z,8.83
2019-03-30T17:28:56.546Z,8.07
2019-03-30T17:31:28.509Z,8.10
2019-03-30T17:33:59.856Z,7.97
2019-03-30T17:36:31.725Z,7.80
2019-03-30T17:39:05.530Z,7.30
2019-03-30T17:41:37.021Z,10.87
2019-03-30T17:44:09.091Z,10.80
2019-03-30T17:46:41.016Z,7.00
2019-03-30T17:49:12.939Z,8.77
2019-03-30T17:51:44.415Z,7.03
2019-03-30T17:54:15.856Z,12.57
2019-03-30T17:56:47.621Z,13.33
2019-03-30T17:59:19.084Z,8.00
2019-03-30T18:01:51.141Z,11.10
2019-03-30T18:04:22.912Z,9.33
2019-03-30T18:06:55.060Z,10.53
2019-03-30T18:09:26.768Z,12.17
2019-03-30T18:11:58.574Z,12.90
2019-03-30T18:14:30.346Z,23.73
2019-03-30T18:17:02.516Z,15.60
2019-03-30T18:19:33.949Z,11.00
2019-03-30T18:22:05.724Z,12.77
2019-03-30T18:24:37.275Z,9.17
2019-03-30T18:27:08.496Z,7.83
2019-03-30T18:29:40.073Z,8.83
2019-03-30T18:32:12.232Z,8.13
2019-03-30T18:34:44.602Z,9.43
2019-03-30T18:37:16.560Z,10.57
2019-03-30T18:39:49.411Z,8.63
2019-03-30T18:42:21.577Z,10.07
2019-03-30T18:44:56.415Z,9.63
2019-03-30T18:47:28.516Z,12.37
2019-03-30T18:50:00.376Z,10.77
2019-03-30T18:52:32.586Z,13.37
2019-03-30T18:55:04.298Z,13.17
2019-03-30T18:57:36.780Z,9.77
2019-03-30T19:00:08.928Z,10.20
2019-03-30T19:02:41.846Z,8.23
2019-03-30T19:05:13.361Z,7.87
2019-03-30T19:07:44.805Z,10.00
2019-03-30T19:10:16.676Z,8.33
2019-03-30T19:12:48.524Z,12.97
2019-03-30T19:15:20.389Z,6.97
2019-03-30T19:17:52.906Z,8.53
2019-03-30T19:20:24.319Z,9.53
2019-03-30T19:22:56.466Z,6.67
2019-03-30T19:25:29.887Z,6.43
2019-03-30T19:28:01.520Z,8.03
2019-03-30T19:30:33.276Z,12.17
2019-03-30T19:33:04.434Z,6.80
2019-03-30T19:35:36.289Z,7.73
2019-03-30T19:38:10.778Z,8.83
2019-03-30T19:40:41.234Z,7.13
2019-03-30T19:43:13.305Z,7.20
2019-03-30T19:45:44.965Z,10.67
2019-03-30T19:48:16.484Z,7.43
2019-03-30T19:50:48.277Z,9.57
2019-03-30T19:53:20.631Z,6.50
2019-03-30T19:55:52.009Z,9.23
2019-03-30T19:58:24.555Z,7.00
2019-03-30T20:00:56.707Z,7.17
2019-03-30T20:03:28.177Z,6.87
2019-03-30T20:05:59.623Z,7.80
2019-03-30T20:08:32.701Z,8.53
2019-03-30T20:11:04.163Z,6.97
2019-03-30T20:13:36.054Z,6.57
2019-03-30T20:16:08.039Z,7.17
2019-03-30T20:18:40.273Z,8.43
2019-03-30T20:21:12.097Z,8.97
2019-03-30T20:23:43.876Z,9.20
2019-03-30T20:26:15.505Z,8.97
2019-03-30T20:28:48.464Z,9.00
2019-03-30T20:31:19.879Z,8.40
2019-03-30T20:33:51.625Z,9.83
2019-03-30T20:36:23.015Z,9.00
2019-03-30T20:38:55.583Z,8.47
2019-03-30T20:41:27.813Z,9.47
2019-03-30T20:43:58.962Z,9.23
2019-03-30T20:46:30.733Z,8.30
2019-03-30T20:49:03.395Z,11.50
2019-03-30T20:51:35.153Z,13.23
2019-03-30T20:54:07.442Z,10.17
2019-03-30T20:56:38.968Z,8.90
2019-03-30T20:59:11.084Z,7.93
2019-03-30T21:01:42.922Z,9.30
2019-03-30T21:04:14.348Z,12.87
2019-03-30T21:06:45.821Z,14.37
2019-03-30T21:09:19.218Z,13.60
2019-03-30T21:11:50.654Z,18.33
2019-03-30T21:14:22.635Z,14.47
2019-03-30T21:16:54.332Z,8.87
2019-03-30T21:19:28.074Z,11.77
2019-03-30T21:21:59.538Z,14.20
2019-03-30T21:24:30.914Z,10.53
2019-03-30T21:27:20.827Z,12.03
2019-03-30T21:29:54.811Z,9.90
2019-03-30T21:32:26.340Z,8.87
2019-03-30T21:34:58.221Z,8.40
2019-03-30T21:37:30.630Z,8.97
2019-03-30T21:40:02.565Z,8.10
2019-03-30T21:45:25.486Z,9.17
2019-03-30T21:47:57.440Z,10.77
2019-03-30T21:50:28.891Z,8.73
2019-03-30T21:53:00.378Z,9.93
2019-03-30T21:55:32.637Z,7.73
2019-03-30T21:58:04.784Z,8.27
2019-03-30T22:00:41.000Z,7.90
2019-03-30T22:03:12.391Z,9.70
2019-03-30T22:05:45.176Z,9.23
2019-03-30T22:08:17.339Z,9.47
2019-03-30T22:10:49.511Z,9.20
2019-03-30T22:13:21.670Z,9.00
2019-03-30T22:15:53.723Z,9.30
2019-03-30T22:18:25.610Z,9.87
2019-03-30T22:20:57.486Z,9.17
2019-03-30T22:23:29.329Z,9.37
2019-03-30T22:26:01.746Z,9.13
2019-03-30T22:29:36.584Z,10.90
2019-03-30T22:32:07.768Z,10.83
2019-03-30T22:34:39.559Z,8.77
2019-03-30T22:37:10.744Z,11.13
2019-03-30T22:39:43.653Z,11.20
2019-03-30T22:42:15.853Z,10.70
2019-03-30T22:44:47.708Z,10.67
2019-03-30T22:47:19.347Z,10.60
2019-03-30T22:49:51.241Z,10.70
2019-03-30T22:52:23.334Z,10.17
2019-03-30T22:54:55.316Z,10.40
2019-03-30T22:57:28.134Z,10.13
2019-03-30T22:59:59.578Z,9.23
2019-03-30T23:02:30.779Z,9.10
2019-03-30T23:05:03.209Z,9.17
2019-03-30T23:07:39.765Z,9.57
2019-03-30T23:10:12.603Z,12.03
2019-03-30T23:12:44.104Z,7.63
2019-03-30T23:15:15.910Z,9.37
2019-03-30T23:17:47.102Z,14.17
2019-03-30T23:20:18.880Z,10.30
2019-03-30T23:22:51.455Z,14.67
2019-03-30T23:25:22.993Z,11.17
2019-03-30T23:27:55.278Z,12.83
2019-03-30T23:30:26.716Z,13.60
2019-03-30T23:32:59.139Z,9.87
2019-03-30T23:35:30.559Z,10.23
2019-03-30T23:38:02.885Z,12.53
2019-03-30T23:40:35.637Z,13.27
2019-03-30T23:43:07.979Z,17.73
2019-03-30T23:45:39.366Z,13.50
2019-03-30T23:48:10.874Z,16.43
2019-03-30T23:50:46.637Z,15.70
2019-03-30T23:53:18.270Z,17.87
2019-03-30T23:55:50.026Z,14.17
2019-03-30T23:58:21.590Z,13.33
